Time;durP1;ratioP1;P1;durP2;ratioP2;P2;SDS_P1;SDS_P2;PMS_P1;PMS_P2;Temp;Humidity;BMP_temperature;BMP_pressure;BME280_temperature;BME280_humidity;BME280_pressure;Samples;Min_cycle;Max_cycle;Signal;HPM_P1;HPM_P2
2023/05/15 06:15:32;;;;;;;;;;;13.60;97.50;;;;;;6045340;23;20038;-96
2023/05/15 06:18:29;;;;;;;;;;;13.70;97.50;;;;;;6024788;23;19908;-96
2023/05/15 06:21:26;;;;;;;;;;;13.60;97.40;;;;;;6039778;23;19902;-96
2023/05/15 06:24:15;;;;;;;;;;;13.80;97.50;;;;;;6015172;23;19902;-96
2023/05/15 06:27:06;;;;;;;;;;;14.10;97.60;;;;;;6016243;23;20316;-96
2023/05/15 06:30:08;;;;;;;;;;;13.70;97.40;;;;;;6044410;23;19916;-96
2023/05/15 06:32:54;;;;;;;;;;;13.80;97.40;;;;;;6018796;23;19906;-96
2023/05/15 06:35:48;;;;;;;;;;;13.70;97.40;;;;;;6023695;23;19976;-96
2023/05/15 06:46:17;;;;;;;;;;;13.90;97.30;;;;;;6176875;23;19905;-96
2023/05/15 06:54:14;;;;;;;;;;;14.10;97.20;;;;;;6168060;23;19949;-96
2023/05/15 06:57:27;;;;;;;;;;;14.10;97.10;;;;;;6176351;23;19904;-96
2023/05/15 07:00:27;;;;;;;;;;;14.60;97.20;;;;;;6145677;23;19924;-96
2023/05/15 07:03:43;;;;;;;;;;;14.20;97.10;;;;;;6174048;23;19924;-96
2023/05/15 07:06:47;;;;;;;;;;;14.20;97.10;;;;;;6169080;23;19900;-96
2023/05/15 07:09:47;;;;;;;;;;;;;;;;;;;;;
2023/05/15 07:15:50;;;;;;;;;;;14.50;96.90;;;;;;6088881;23;19973;-96
2023/05/15 07:18:45;;;;;;;;;;;14.40;96.80;;;;;;6087594;23;19886;-96
2023/05/15 07:21:33;;;;;;;;;;;14.50;96.70;;;;;;6058065;23;19921;-96
2023/05/15 07:24:24;;;;;;;;;;;14.50;96.60;;;;;;6078400;23;19905;-96
2023/05/15 07:27:29;;;;;;;;;;;14.60;96.60;;;;;;6085752;23;19906;-96
2023/05/15 07:30:19;;;;;;;;;;;14.70;96.60;;;;;;6084843;23;19894;-96
2023/05/15 07:33:14;;;;;;;;;;;14.60;96.50;;;;;;6088604;23;19910;-96
2023/05/15 07:36:08;;;;;;;;;;;14.70;96.40;;;;;;6100268;23;20307;-96
2023/05/15 07:38:36;;;;;;;;;;;14.70;96.40;;;;;;6173956;23;19904;-96
2023/05/15 07:41:48;;;;;;;;;;;14.70;96.40;;;;;;6154804;23;19904;-96
2023/05/15 07:44:58;;;;;;;;;;;14.80;96.40;;;;;;6172970;23;19897;-96
2023/05/15 07:54:13;;;;;;;;;;;14.90;96.30;;;;;;6117012;23;19941;-96
2023/05/15 07:59:38;;;;;;;;;;;15.00;96.20;;;;;;6176590;23;19921;-96
2023/05/15 08:02:23;;;;;;;;;;;15.00;96.20;;;;;;6153564;23;19944;-96
2023/05/15 08:05:29;;;;;;;;;;;15.00;96.10;;;;;;6181626;23;19908;-96
2023/05/15 08:10:33;;;;;;;;;;;15.20;96.00;;;;;;6172220;23;19917;-95
2023/05/15 08:13:19;;;;;;;;;;;15.20;95.90;;;;;;6140527;23;19908;-96
2023/05/15 08:18:51;;;;;;;;;;;15.30;95.80;;;;;;6152346;23;19916;-96
2023/05/15 08:21:17;;;;;;;;;;;15.50;95.70;;;;;;6092065;23;19928;-96
2023/05/15 08:24:04;;;;;;;;;;;15.30;95.60;;;;;;6113766;23;19905;-96
2023/05/15 08:26:30;;;;;;;;;;;15.40;95.60;;;;;;6111458;23;19901;-96
2023/05/15 08:31:46;;;;;;;;;;;15.40;95.40;;;;;;6169694;23;19923;-96
2023/05/15 08:34:36;;;;;;;;;;;15.40;95.30;;;;;;6147774;23;19911;-96
2023/05/15 08:37:28;;;;;;;;;;;15.50;95.20;;;;;;6169281;23;19907;-96
2023/05/15 08:40:31;;;;;;;;;;;15.50;95.10;;;;;;6170837;23;19904;-96
2023/05/15 08:43:03;;;;;;;;;;;15.70;95.10;;;;;;6162110;23;20401;-96
2023/05/15 08:45:50;;;;;;;;;;;15.60;95.00;;;;;;6121506;23;19915;-96
2023/05/15 08:48:38;;;;;;;;;;;15.60;94.90;;;;;;6154935;23;19905;-96
2023/05/15 08:51:26;;;;;;;;;;;15.70;94.90;;;;;;6171063;23;19909;-96
2023/05/15 09:00:05;;;;;;;;;;;15.80;94.50;;;;;;6169831;23;19901;-96
2023/05/15 09:02:48;;;;;;;;;;;15.70;94.40;;;;;;6169868;23;19920;-96
2023/05/15 09:05:39;;;;;;;;;;;15.90;94.30;;;;;;6150822;23;19896;-96
2023/05/15 09:08:08;;;;;;;;;;;15.90;94.30;;;;;;6158346;23;19939;-96
2023/05/15 09:11:21;;;;;;;;;;;15.90;94.10;;;;;;6177754;23;19917;-96
2023/05/15 09:20:44;;;;;;;;;;;16.00;93.80;;;;;;6121033;23;19923;-96
2023/05/15 09:27:05;;;;;;;;;;;16.00;93.60;;;;;;6114421;23;19917;-96
2023/05/15 09:32:28;;;;;;;;;;;16.10;93.40;;;;;;6169127;23;19924;-96
2023/05/15 09:35:46;;;;;;;;;;;16.10;93.40;;;;;;6152971;23;19904;-96
2023/05/15 09:38:58;;;;;;;;;;;16.10;93.30;;;;;;6175144;23;19911;-96
2023/05/15 09:42:08;;;;;;;;;;;16.10;93.30;;;;;;6177051;23;20381;-96
2023/05/15 09:45:06;;;;;;;;;;;16.10;93.30;;;;;;6146926;23;19911;-96
2023/05/15 09:50:52;;;;;;;;;;;16.10;93.30;;;;;;6177417;23;19917;-96
2023/05/15 09:53:41;;;;;;;;;;;16.10;93.30;;;;;;6177441;23;19901;-96
2023/05/15 09:56:51;;;;;;;;;;;16.10;93.20;;;;;;6154514;23;19909;-96
2023/05/15 10:10:25;;;;;;;;;;;16.10;93.10;;;;;;6163465;23;19920;-96
2023/05/15 10:25:34;;;;;;;;;;;16.10;93.10;;;;;;6056608;23;19986;-96
2023/05/15 10:28:37;;;;;;;;;;;16.00;93.00;;;;;;6000340;24;20345;-96
2023/05/15 10:31:38;;;;;;;;;;;16.00;93.10;;;;;;5923804;24;19915;-96
2023/05/15 10:34:42;;;;;;;;;;;16.00;93.20;;;;;;5899978;24;19892;-96
2023/05/15 10:37:52;;;;;;;;;;;15.90;93.20;;;;;;5865475;24;19904;-96
2023/05/15 10:46:36;;;;;;;;;;;16.00;93.30;;;;;;6122077;23;19957;-96
2023/05/15 10:49:37;;;;;;;;;;;15.90;93.30;;;;;;6115275;23;19928;-96
2023/05/15 10:52:30;;;;;;;;;;;15.90;93.20;;;;;;6095756;23;19920;-96
2023/05/15 11:01:26;;;;;;;;;;;15.80;93.40;;;;;;6202405;23;20335;-96
2023/05/15 11:04:34;;;;;;;;;;;15.80;93.40;;;;;;6105285;23;19913;-96
2023/05/15 11:07:13;;;;;;;;;;;15.80;93.50;;;;;;6100174;23;19907;-96
2023/05/15 11:09:39;;;;;;;;;;;15.80;93.50;;;;;;6057791;23;19913;-96
2023/05/15 11:12:42;;;;;;;;;;;15.70;93.60;;;;;;6105281;23;20427;-96
2023/05/15 11:15:11;;;;;;;;;;;15.70;93.70;;;;;;6100619;23;19901;-96
2023/05/15 11:17:58;;;;;;;;;;;15.70;93.70;;;;;;6077829;23;19901;-96
2023/05/15 11:20:32;;;;;;;;;;;15.70;93.70;;;;;;6103328;23;19905;-96
2023/05/15 11:22:58;;;;;;;;;;;15.70;93.80;;;;;;6051887;23;20001;-96
2023/05/15 11:25:33;;;;;;;;;;;15.60;93.80;;;;;;6079212;23;19901;-95
2023/05/15 11:27:59;;;;;;;;;;;15.70;93.80;;;;;;6077243;23;19925;-96
2023/05/15 11:30:38;;;;;;;;;;;15.70;93.90;;;;;;6082054;23;19909;-96
2023/05/15 11:33:11;;;;;;;;;;;15.70;93.90;;;;;;6082790;23;20371;-96
2023/05/15 11:36:01;;;;;;;;;;;15.70;94.00;;;;;;6059435;23;19909;-96
2023/05/15 11:39:03;;;;;;;;;;;15.60;93.80;;;;;;6107168;23;19924;-96
2023/05/15 11:41:48;;;;;;;;;;;15.70;94.00;;;;;;6079575;23;19901;-96
2023/05/15 11:44:33;;;;;;;;;;;15.60;94.00;;;;;;6057636;23;19889;-96
2023/05/15 11:47:04;;;;;;;;;;;15.60;94.20;;;;;;6034426;23;19927;-96
2023/05/15 11:49:52;;;;;;;;;;;15.60;94.10;;;;;;6034335;23;19916;-96
2023/05/15 11:52:18;;;;;;;;;;;15.60;94.20;;;;;;6050207;23;19913;-96
2023/05/15 11:54:49;;;;;;;;;;;15.60;94.10;;;;;;6027647;23;19911;-96
2023/05/15 11:57:15;;;;;;;;;;;15.60;94.20;;;;;;6023907;23;19909;-96
2023/05/15 11:59:41;;;;;;;;;;;15.60;94.30;;;;;;6026090;23;20379;-96
2023/05/15 12:02:26;;;;;;;;;;;15.50;94.30;;;;;;6029988;23;19961;-96
2023/05/15 12:04:53;;;;;;;;;;;15.50;94.30;;;;;;6078931;23;19956;-96
2023/05/15 12:07:19;;;;;;;;;;;15.50;94.40;;;;;;6027866;23;19906;-96
2023/05/15 12:10:06;;;;;;;;;;;15.50;94.40;;;;;;6023672;23;19909;-96
2023/05/15 12:12:34;;;;;;;;;;;15.50;94.40;;;;;;6075912;23;20323;-96
2023/05/15 12:15:00;;;;;;;;;;;15.50;94.50;;;;;;6031686;23;19914;-96
2023/05/15 12:17:26;;;;;;;;;;;15.50;94.50;;;;;;6037547;23;20520;-96
2023/05/15 12:20:18;;;;;;;;;;;15.40;94.50;;;;;;6064429;23;19905;-96
2023/05/15 12:23:02;;;;;;;;;;;15.40;94.60;;;;;;6111861;23;19924;-96
2023/05/15 12:25:29;;;;;;;;;;;15.40;94.70;;;;;;6058356;23;19909;-96
2023/05/15 12:27:55;;;;;;;;;;;15.40;94.80;;;;;;6080435;23;19952;-96
2023/05/15 12:30:41;;;;;;;;;;;15.40;94.80;;;;;;6075572;23;19988;-96
2023/05/15 12:33:08;;;;;;;;;;;15.40;94.80;;;;;;6076091;23;19944;-96
2023/05/15 12:35:53;;;;;;;;;;;15.40;94.90;;;;;;6051388;23;19928;-96
2023/05/15 12:38:21;;;;;;;;;;;15.40;94.90;;;;;;6074136;23;19909;-96
2023/05/15 12:41:06;;;;;;;;;;;15.40;94.90;;;;;;6051633;23;20371;-96
2023/05/15 12:43:32;;;;;;;;;;;15.30;94.90;;;;;;6073511;23;19902;-96
2023/05/15 12:46:18;;;;;;;;;;;15.30;94.90;;;;;;6050181;23;19905;-96
2023/05/15 12:48:43;;;;;;;;;;;15.30;94.90;;;;;;6078407;23;20040;-96
2023/05/15 12:51:29;;;;;;;;;;;15.30;94.90;;;;;;6076720;23;19909;-96
2023/05/15 12:53:59;;;;;;;;;;;15.30;95.00;;;;;;6097082;23;19901;-96
2023/05/15 12:56:32;;;;;;;;;;;15.30;95.00;;;;;;6049225;23;19909;-96
2023/05/15 12:59:07;;;;;;;;;;;15.30;95.00;;;;;;6048728;23;20298;-96
2023/05/15 13:01:34;;;;;;;;;;;15.30;95.10;;;;;;6050020;23;19906;-96
2023/05/15 13:03:59;;;;;;;;;;;15.20;95.10;;;;;;6049335;23;19916;-96
2023/05/15 13:06:26;;;;;;;;;;;15.20;95.10;;;;;;6074743;23;20227;-96
2023/05/15 13:09:12;;;;;;;;;;;15.20;95.10;;;;;;6072451;23;20029;-96
2023/05/15 13:11:42;;;;;;;;;;;15.20;95.20;;;;;;6094490;23;19913;-96
2023/05/15 13:14:10;;;;;;;;;;;15.20;95.20;;;;;;6070882;23;19976;-96
2023/05/15 13:16:35;;;;;;;;;;;15.20;95.20;;;;;;6070974;23;19905;-96
2023/05/15 13:19:01;;;;;;;;;;;15.20;95.20;;;;;;6046882;23;19912;-96
2023/05/15 13:21:49;;;;;;;;;;;15.20;95.20;;;;;;6046668;23;19972;-96
2023/05/15 13:24:15;;;;;;;;;;;15.20;95.30;;;;;;6070413;23;19920;-96
2023/05/15 13:26:40;;;;;;;;;;;15.20;95.30;;;;;;6071245;23;20504;-96
2023/05/15 13:29:26;;;;;;;;;;;15.20;95.40;;;;;;6048316;23;19905;-96
2023/05/15 13:32:09;;;;;;;;;;;15.20;95.30;;;;;;6095039;23;19916;-96
2023/05/15 13:34:36;;;;;;;;;;;15.20;95.40;;;;;;6095599;23;19902;-96
2023/05/15 13:37:02;;;;;;;;;;;15.20;95.40;;;;;;6071152;23;20332;-96
2023/05/15 13:39:47;;;;;;;;;;;15.20;95.40;;;;;;6047645;23;19906;-96
2023/05/15 13:42:13;;;;;;;;;;;15.20;95.50;;;;;;6095650;23;19901;-96
2023/05/15 13:44:39;;;;;;;;;;;15.10;95.50;;;;;;6046939;23;19916;-96
2023/05/15 13:47:05;;;;;;;;;;;15.20;95.50;;;;;;6047693;23;19913;-96
2023/05/15 13:49:30;;;;;;;;;;;15.10;95.50;;;;;;6047099;23;19937;-96
2023/05/15 13:51:56;;;;;;;;;;;15.10;95.50;;;;;;6072229;23;20495;-96
2023/05/15 13:54:22;;;;;;;;;;;15.20;95.50;;;;;;6071743;23;20370;-96
2023/05/15 13:56:47;;;;;;;;;;;15.10;95.50;;;;;;6047111;23;19906;-96
2023/05/15 13:59:14;;;;;;;;;;;15.10;95.60;;;;;;6047552;23;19921;-96
2023/05/15 14:01:40;;;;;;;;;;;15.10;95.60;;;;;;6047666;23;19993;-96
2023/05/15 14:04:06;;;;;;;;;;;15.10;95.60;;;;;;6049144;23;19909;-96
2023/05/15 14:06:32;;;;;;;;;;;15.10;95.80;;;;;;6046876;23;19905;-96
2023/05/15 14:08:58;;;;;;;;;;;15.10;95.70;;;;;;6047061;23;19938;-96
2023/05/15 14:11:44;;;;;;;;;;;15.10;95.80;;;;;;6071830;23;20342;-96
2023/05/15 14:14:37;;;;;;;;;;;15.10;95.70;;;;;;6080149;23;19905;-96
2023/05/15 14:17:24;;;;;;;;;;;15.40;95.80;;;;;;6169494;23;19904;-96
2023/05/15 14:19:50;;;;;;;;;;;15.10;95.70;;;;;;6137619;23;20473;-96
2023/05/15 14:22:18;;;;;;;;;;;15.10;95.70;;;;;;6136996;23;19905;-96
2023/05/15 14:24:44;;;;;;;;;;;15.10;95.70;;;;;;6113115;23;19991;-96
2023/05/15 14:27:09;;;;;;;;;;;15.10;95.70;;;;;;6138884;23;19901;-96
2023/05/15 14:29:48;;;;;;;;;;;15.10;95.70;;;;;;6113659;23;19909;-96
2023/05/15 14:32:14;;;;;;;;;;;15.10;95.60;;;;;;6109734;23;19931;-96
2023/05/15 14:34:40;;;;;;;;;;;15.10;95.60;;;;;;6111184;23;20360;-96
2023/05/15 14:37:06;;;;;;;;;;;15.10;95.70;;;;;;6107240;23;19959;-96
2023/05/15 14:39:31;;;;;;;;;;;15.10;95.70;;;;;;6111820;23;19932;-96
2023/05/15 14:41:57;;;;;;;;;;;15.10;95.70;;;;;;6110529;23;20275;-96
2023/05/15 14:44:23;;;;;;;;;;;15.10;95.70;;;;;;6133567;23;19901;-96
2023/05/15 14:47:03;;;;;;;;;;;15.10;95.70;;;;;;6114009;23;19905;-96
2023/05/15 14:49:30;;;;;;;;;;;15.10;95.70;;;;;;6108835;23;19936;-96
2023/05/15 14:52:18;;;;;;;;;;;15.10;95.70;;;;;;6132842;23;19951;-96
2023/05/15 14:54:44;;;;;;;;;;;15.00;95.70;;;;;;6131911;23;19905;-96
2023/05/15 14:57:11;;;;;;;;;;;15.00;95.70;;;;;;6109157;23;19912;-96
2023/05/15 14:59:56;;;;;;;;;;;15.00;95.70;;;;;;6133583;23;19949;-96
2023/05/15 15:02:26;;;;;;;;;;;15.00;95.70;;;;;;6131413;23;19905;-96
2023/05/15 15:04:52;;;;;;;;;;;15.00;95.70;;;;;;6123251;23;19916;-96
2023/05/15 15:07:18;;;;;;;;;;;15.00;95.70;;;;;;6161199;23;20361;-95
2023/05/15 15:09:44;;;;;;;;;;;15.00;95.70;;;;;;6135927;23;20314;-96
2023/05/15 15:12:09;;;;;;;;;;;15.00;95.70;;;;;;6163196;23;19951;-94
2023/05/15 15:14:35;;;;;;;;;;;15.00;95.70;;;;;;6160538;23;19954;-94
2023/05/15 15:17:01;;;;;;;;;;;15.00;95.70;;;;;;6159393;23;19978;-94
2023/05/15 15:19:26;;;;;;;;;;;15.00;95.70;;;;;;6160179;23;19915;-94
2023/05/15 15:21:52;;;;;;;;;;;15.00;95.70;;;;;;6159539;23;19904;-94
2023/05/15 15:24:17;;;;;;;;;;;15.00;95.60;;;;;;6160150;23;19900;-93
2023/05/15 15:26:43;;;;;;;;;;;14.90;95.60;;;;;;6161137;23;19947;-93
2023/05/15 15:29:08;;;;;;;;;;;15.00;95.60;;;;;;6159946;23;19900;-94
2023/05/15 15:31:34;;;;;;;;;;;15.00;95.50;;;;;;6160684;23;19904;-94
2023/05/15 15:34:00;;;;;;;;;;;15.00;95.60;;;;;;6160154;23;19907;-93
2023/05/15 15:36:25;;;;;;;;;;;15.00;95.50;;;;;;6160274;23;20306;-94
2023/05/15 15:38:51;;;;;;;;;;;15.00;95.50;;;;;;6134839;23;20199;-94
2023/05/15 15:41:17;;;;;;;;;;;15.00;95.50;;;;;;6160452;23;19939;-95
2023/05/15 15:43:45;;;;;;;;;;;15.00;95.50;;;;;;6159517;23;19900;-95
2023/05/15 15:46:11;;;;;;;;;;;15.00;95.50;;;;;;6135774;23;19905;-95
2023/05/15 15:48:37;;;;;;;;;;;15.00;95.50;;;;;;6135628;23;19912;-95
2023/05/15 15:51:03;;;;;;;;;;;15.00;95.50;;;;;;6160014;23;19912;-94
2023/05/15 15:53:32;;;;;;;;;;;15.00;95.50;;;;;;6160314;23;19901;-94
2023/05/15 15:55:58;;;;;;;;;;;15.00;95.50;;;;;;6160070;23;20333;-95
2023/05/15 15:58:23;;;;;;;;;;;15.30;95.60;;;;;;6159762;23;19900;-94
2023/05/15 16:00:49;;;;;;;;;;;15.00;95.50;;;;;;6159628;23;19963;-94
2023/05/15 16:03:15;;;;;;;;;;;15.00;95.50;;;;;;6159714;23;19982;-93
2023/05/15 16:05:40;;;;;;;;;;;14.90;95.50;;;;;;6160934;23;19932;-94
2023/05/15 16:08:06;;;;;;;;;;;14.90;95.60;;;;;;6160596;23;19900;-94
2023/05/15 16:10:32;;;;;;;;;;;15.00;95.60;;;;;;6160234;23;19904;-95
2023/05/15 16:13:02;;;;;;;;;;;14.90;95.60;;;;;;6135905;23;19940;-96
2023/05/15 16:15:28;;;;;;;;;;;14.90;95.60;;;;;;6137648;23;19959;-96
2023/05/15 16:18:13;;;;;;;;;;;14.90;95.60;;;;;;6138034;23;19908;-96
2023/05/15 16:21:00;;;;;;;;;;;14.90;95.60;;;;;;6188013;23;19900;-96
2023/05/15 16:23:26;;;;;;;;;;;14.90;95.60;;;;;;6161547;23;20361;-96
2023/05/15 16:25:52;;;;;;;;;;;14.90;95.60;;;;;;6137134;23;19904;-96
2023/05/15 16:28:37;;;;;;;;;;;14.90;95.60;;;;;;6137405;23;19904;-96
2023/05/15 16:31:03;;;;;;;;;;;14.90;95.60;;;;;;6161435;23;20306;-95
2023/05/15 16:33:29;;;;;;;;;;;14.90;95.60;;;;;;6159858;23;19900;-95
2023/05/15 16:35:59;;;;;;;;;;;14.90;95.60;;;;;;6135753;23;19949;-96
2023/05/15 16:38:25;;;;;;;;;;;14.90;95.60;;;;;;6136334;23;19908;-95
2023/05/15 16:41:14;;;;;;;;;;;14.80;95.60;;;;;;6160567;23;19946;-95
2023/05/15 16:43:59;;;;;;;;;;;14.90;95.70;;;;;;6159503;23;19900;-95
2023/05/15 16:46:26;;;;;;;;;;;14.80;95.70;;;;;;6186044;23;19908;-95
2023/05/15 16:48:55;;;;;;;;;;;14.80;95.70;;;;;;6161482;23;19943;-94
2023/05/15 16:51:20;;;;;;;;;;;14.90;95.70;;;;;;6135448;23;19912;-94
2023/05/15 16:53:46;;;;;;;;;;;14.80;95.70;;;;;;6135224;23;19912;-94
2023/05/15 16:56:14;;;;;;;;;;;14.80;95.70;;;;;;6159785;23;19954;-95
2023/05/15 16:59:00;;;;;;;;;;;14.80;95.70;;;;;;6135825;23;19905;-95
2023/05/15 17:01:25;;;;;;;;;;;14.80;95.70;;;;;;6159507;23;19986;-94
2023/05/15 17:03:51;;;;;;;;;;;14.80;95.70;;;;;;6134644;23;20338;-95
2023/05/15 17:06:17;;;;;;;;;;;14.70;95.70;;;;;;6134894;23;19935;-95
2023/05/15 17:08:44;;;;;;;;;;;14.80;95.70;;;;;;6135778;23;20303;-94
2023/05/15 17:11:10;;;;;;;;;;;14.80;95.70;;;;;;6135070;23;19908;-94
2023/05/15 17:13:36;;;;;;;;;;;15.20;95.80;;;;;;6159603;23;19908;-93
2023/05/15 17:16:02;;;;;;;;;;;14.70;95.70;;;;;;6160156;23;20249;-94
2023/05/15 17:18:47;;;;;;;;;;;14.70;95.70;;;;;;6159888;23;19904;-95
2023/05/15 17:21:36;;;;;;;;;;;14.70;95.70;;;;;;6160054;23;19900;-96
2023/05/15 17:24:02;;;;;;;;;;;14.80;95.70;;;;;;6159914;23;19915;-96
2023/05/15 17:26:47;;;;;;;;;;;14.70;95.80;;;;;;6136067;23;19983;-96
2023/05/15 17:29:14;;;;;;;;;;;14.70;95.70;;;;;;6185526;23;19900;-96
2023/05/15 17:31:44;;;;;;;;;;;14.70;95.80;;;;;;6187053;23;20226;-95
2023/05/15 17:34:29;;;;;;;;;;;14.70;95.80;;;;;;6135452;23;19911;-96
2023/05/15 17:36:55;;;;;;;;;;;14.70;95.80;;;;;;6160571;23;19910;-96
2023/05/15 17:39:21;;;;;;;;;;;14.70;95.80;;;;;;6160966;23;19911;-96
2023/05/15 17:42:07;;;;;;;;;;;14.70;95.80;;;;;;6134540;23;19904;-96
2023/05/15 17:44:53;;;;;;;;;;;14.70;95.80;;;;;;6160225;23;19928;-96
2023/05/15 17:47:18;;;;;;;;;;;14.70;95.80;;;;;;6160128;23;20392;-96
2023/05/15 17:50:04;;;;;;;;;;;14.70;95.80;;;;;;6159597;23;19935;-96
2023/05/15 17:52:50;;;;;;;;;;;14.70;95.80;;;;;;6160781;23;19911;-96
2023/05/15 17:55:35;;;;;;;;;;;14.70;95.80;;;;;;6160001;23;20034;-96
2023/05/15 17:58:22;;;;;;;;;;;14.70;95.80;;;;;;6190291;23;19979;-96
2023/05/15 18:01:08;;;;;;;;;;;14.70;95.80;;;;;;6190508;23;19900;-96
2023/05/15 18:03:54;;;;;;;;;;;14.60;95.80;;;;;;6161633;23;19924;-96
2023/05/15 18:06:19;;;;;;;;;;;14.70;95.90;;;;;;6162282;23;19915;-96
2023/05/15 18:09:08;;;;;;;;;;;14.60;95.80;;;;;;6141657;23;19912;-96
2023/05/15 18:12:15;;;;;;;;;;;14.70;95.90;;;;;;6165900;23;19931;-96
2023/05/15 18:15:03;;;;;;;;;;;14.60;95.80;;;;;;6191128;23;19948;-96
2023/05/15 18:18:08;;;;;;;;;;;14.60;95.90;;;;;;6187470;23;19907;-96
2023/05/15 18:20:34;;;;;;;;;;;14.60;95.90;;;;;;6160598;23;20231;-94
2023/05/15 18:22:59;;;;;;;;;;;14.60;95.90;;;;;;6160661;23;19912;-94
2023/05/15 18:25:35;;;;;;;;;;;14.60;95.90;;;;;;6161075;23;19910;-94
2023/05/15 18:28:07;;;;;;;;;;;14.60;95.90;;;;;;6161349;23;19983;-93
2023/05/15 18:30:33;;;;;;;;;;;14.60;96.00;;;;;;6138082;23;19916;-94
2023/05/15 18:32:59;;;;;;;;;;;14.60;96.00;;;;;;6161684;23;19931;-93
2023/05/15 18:35:24;;;;;;;;;;;14.60;96.00;;;;;;6161676;23;19991;-93
2023/05/15 18:37:53;;;;;;;;;;;14.60;96.00;;;;;;6161483;23;19900;-93
2023/05/15 18:40:19;;;;;;;;;;;14.60;96.00;;;;;;6136933;23;19927;-93
2023/05/15 18:42:44;;;;;;;;;;;14.60;96.10;;;;;;6161036;23;19901;-93
2023/05/15 18:45:11;;;;;;;;;;;14.60;96.10;;;;;;6161164;23;19935;-93
2023/05/15 18:47:38;;;;;;;;;;;14.60;96.10;;;;;;6160459;23;19900;-93
2023/05/15 18:50:04;;;;;;;;;;;14.60;96.10;;;;;;6136296;23;19931;-93
2023/05/15 18:52:30;;;;;;;;;;;14.60;96.20;;;;;;6160288;23;19958;-93
2023/05/15 18:54:56;;;;;;;;;;;14.60;96.20;;;;;;6160560;23;19900;-94
2023/05/15 18:57:22;;;;;;;;;;;14.60;96.20;;;;;;6160297;23;20329;-93
2023/05/15 18:59:47;;;;;;;;;;;14.60;96.20;;;;;;6160930;23;19900;-93
2023/05/15 19:02:13;;;;;;;;;;;14.60;96.20;;;;;;6161151;23;19904;-93
2023/05/15 19:04:39;;;;;;;;;;;14.50;96.20;;;;;;6160406;23;20318;-94
2023/05/15 19:07:05;;;;;;;;;;;14.50;96.30;;;;;;6160398;23;20380;-93
2023/05/15 19:09:34;;;;;;;;;;;14.50;96.30;;;;;;6160068;23;19955;-94
2023/05/15 19:12:02;;;;;;;;;;;14.60;96.30;;;;;;6160406;23;19904;-94
2023/05/15 19:14:34;;;;;;;;;;;14.50;96.30;;;;;;6159791;23;19900;-93
2023/05/15 19:16:59;;;;;;;;;;;14.50;96.30;;;;;;6135013;23;19966;-94
2023/05/15 19:19:26;;;;;;;;;;;14.50;96.30;;;;;;6159841;23;20318;-93
2023/05/15 19:21:52;;;;;;;;;;;14.50;96.30;;;;;;6160684;23;19962;-94
2023/05/15 19:24:19;;;;;;;;;;;14.50;96.40;;;;;;6159854;23;19900;-94
2023/05/15 19:26:45;;;;;;;;;;;14.50;96.40;;;;;;6160406;23;19904;-94
2023/05/15 19:29:11;;;;;;;;;;;14.50;96.40;;;;;;6160084;23;19955;-93
2023/05/15 19:31:37;;;;;;;;;;;14.50;96.40;;;;;;6187144;23;19908;-94
2023/05/15 19:34:03;;;;;;;;;;;14.50;96.40;;;;;;6159814;23;20329;-94
2023/05/15 19:39:57;;;;;;;;;;;14.50;96.40;;;;;;6186481;23;19907;-94
2023/05/15 19:42:22;;;;;;;;;;;14.50;96.50;;;;;;6160953;23;19900;-93
2023/05/15 19:44:48;;;;;;;;;;;14.40;96.40;;;;;;6135790;23;19947;-94
2023/05/15 19:47:14;;;;;;;;;;;14.50;96.50;;;;;;6135596;23;19908;-94
2023/05/15 19:49:41;;;;;;;;;;;14.50;96.50;;;;;;6160689;23;19920;-94
2023/05/15 19:52:30;;;;;;;;;;;14.50;96.50;;;;;;6136657;23;20063;-95
2023/05/15 19:55:16;;;;;;;;;;;14.40;96.50;;;;;;6160922;23;19905;-95
2023/05/15 19:57:43;;;;;;;;;;;14.40;96.50;;;;;;6165118;23;19911;-95
2023/05/15 20:00:31;;;;;;;;;;;14.40;96.50;;;;;;6137757;23;19904;-95
2023/05/15 20:03:00;;;;;;;;;;;14.40;96.50;;;;;;6160446;23;19907;-94
2023/05/15 20:05:25;;;;;;;;;;;14.40;96.50;;;;;;6136386;23;19916;-95
2023/05/15 20:08:12;;;;;;;;;;;14.40;96.50;;;;;;6135665;23;19951;-95
2023/05/15 20:10:41;;;;;;;;;;;14.40;96.50;;;;;;6158288;23;19904;-95
2023/05/15 20:13:29;;;;;;;;;;;14.40;96.50;;;;;;6135723;23;19908;-95
2023/05/15 20:16:15;;;;;;;;;;;14.40;96.50;;;;;;6160132;23;19900;-95
2023/05/15 20:19:02;;;;;;;;;;;14.40;96.50;;;;;;6185007;23;19900;-95
2023/05/15 20:21:54;;;;;;;;;;;14.40;96.50;;;;;;6158963;23;20422;-96
2023/05/15 20:25:02;;;;;;;;;;;14.40;96.60;;;;;;6186400;23;19900;-96
2023/05/15 20:28:17;;;;;;;;;;;;;;;;;;;;;
2023/05/15 20:31:17;;;;;;;;;;;14.40;96.50;;;;;;6186391;23;19904;-96
2023/05/15 20:34:16;;;;;;;;;;;14.40;96.50;;;;;;6185303;23;19974;-96
2023/05/15 20:37:01;;;;;;;;;;;14.40;96.50;;;;;;6159416;23;19974;-95
2023/05/15 20:39:56;;;;;;;;;;;14.40;96.50;;;;;;6160217;23;19978;-96
2023/05/15 20:45:56;;;;;;;;;;;14.40;96.50;;;;;;6185475;23;19911;-96
2023/05/15 20:48:33;;;;;;;;;;;14.40;96.50;;;;;;6185510;23;19955;-96
2023/05/15 20:51:21;;;;;;;;;;;14.40;96.50;;;;;;6137875;23;20207;-96
2023/05/15 20:54:27;;;;;;;;;;;14.40;96.60;;;;;;6185583;23;19979;-96
2023/05/15 20:57:15;;;;;;;;;;;14.40;96.50;;;;;;6159546;23;19900;-96
2023/05/15 21:00:04;;;;;;;;;;;14.40;96.50;;;;;;6184698;23;19907;-96
2023/05/15 21:03:13;;;;;;;;;;;14.30;96.50;;;;;;6161793;23;19910;-96
2023/05/15 21:06:01;;;;;;;;;;;14.30;96.50;;;;;;6160534;23;19915;-96
2023/05/15 21:08:46;;;;;;;;;;;14.30;96.40;;;;;;6159463;23;19900;-96
2023/05/15 21:15:06;;;;;;;;;;;14.30;96.50;;;;;;6095425;23;19925;-96
2023/05/15 21:18:02;;;;;;;;;;;14.30;96.50;;;;;;6094016;23;19905;-96
2023/05/15 21:21:11;;;;;;;;;;;;;;;;;;;;;
2023/05/15 21:24:09;;;;;;;;;;;14.30;96.50;;;;;;6097572;23;19912;-96
2023/05/15 21:26:37;;;;;;;;;;;14.30;96.50;;;;;;6071651;23;19916;-96
2023/05/15 21:29:21;;;;;;;;;;;14.30;96.50;;;;;;6073682;23;19905;-96
2023/05/15 21:32:16;;;;;;;;;;;14.30;96.50;;;;;;6073317;23;19958;-96
2023/05/15 21:35:32;;;;;;;;;;;;;;;;;;;;;
2023/05/15 21:38:11;;;;;;;;;;;14.30;96.50;;;;;;6096374;23;20208;-96
2023/05/15 21:41:20;;;;;;;;;;;14.30;96.50;;;;;;6076346;23;19905;-96
2023/05/15 21:44:52;;;;;;;;;;;14.30;96.50;;;;;;6097169;23;19905;-96
2023/05/15 21:47:42;;;;;;;;;;;14.30;96.50;;;;;;6096494;23;19939;-96
2023/05/15 21:50:30;;;;;;;;;;;14.30;96.50;;;;;;6072455;23;19973;-96
2023/05/15 21:53:18;;;;;;;;;;;14.30;96.50;;;;;;6160660;23;19983;-96
2023/05/15 21:56:25;;;;;;;;;;;14.30;96.50;;;;;;6184933;23;20313;-96
2023/05/15 21:59:15;;;;;;;;;;;14.20;96.50;;;;;;6186399;23;19900;-96
2023/05/15 22:02:17;;;;;;;;;;;14.30;96.50;;;;;;6186616;23;19923;-96
2023/05/15 22:05:26;;;;;;;;;;;14.30;96.50;;;;;;6185879;23;19908;-96
2023/05/15 22:08:15;;;;;;;;;;;14.30;96.30;;;;;;6186214;23;20374;-96
2023/05/15 22:11:01;;;;;;;;;;;14.20;96.40;;;;;;6184123;23;19904;-96
2023/05/15 22:14:07;;;;;;;;;;;14.20;96.40;;;;;;6164397;23;20362;-96
2023/05/15 22:17:03;;;;;;;;;;;14.20;96.40;;;;;;6182897;23;19907;-96
2023/05/15 22:20:17;;;;;;;;;;;14.20;96.30;;;;;;6186880;23;19904;-96
2023/05/15 22:22:57;;;;;;;;;;;14.20;96.40;;;;;;6158307;23;19932;-96
2023/05/15 22:25:52;;;;;;;;;;;14.20;96.30;;;;;;6188167;23;19912;-96
2023/05/15 22:29:09;;;;;;;;;;;14.20;96.30;;;;;;6187018;23;19908;-96
2023/05/15 22:32:00;;;;;;;;;;;14.20;96.30;;;;;;6183513;23;19904;-96
2023/05/15 22:35:17;;;;;;;;;;;;;;;;;;;;;
2023/05/15 22:38:18;;;;;;;;;;;14.20;96.30;;;;;;6188985;23;19939;-96
2023/05/15 22:41:24;;;;;;;;;;;14.10;96.20;;;;;;6096069;23;19925;-96
2023/05/15 22:44:16;;;;;;;;;;;14.10;96.20;;;;;;6071790;23;19980;-96
2023/05/15 22:47:16;;;;;;;;;;;14.30;96.20;;;;;;6097796;23;20280;-96
2023/05/15 22:50:05;;;;;;;;;;;14.10;96.10;;;;;;6075094;23;19905;-96
2023/05/15 22:53:13;;;;;;;;;;;14.10;96.00;;;;;;6098550;23;19901;-96
2023/05/15 22:56:01;;;;;;;;;;;14.10;96.00;;;;;;6097796;23;19904;-96
2023/05/15 22:59:06;;;;;;;;;;;14.00;96.00;;;;;;6076924;23;19906;-96
2023/05/15 23:02:03;;;;;;;;;;;14.10;96.10;;;;;;6098051;23;19989;-96
2023/05/15 23:04:39;;;;;;;;;;;;;;;;;;;;;
2023/05/15 23:07:35;;;;;;;;;;;14.00;96.00;;;;;;6079637;23;19905;-96
2023/05/15 23:10:18;;;;;;;;;;;14.00;96.00;;;;;;6097016;23;19911;-96
2023/05/15 23:13:08;;;;;;;;;;;14.00;96.00;;;;;;6159196;23;20321;-96
2023/05/15 23:15:45;;;;;;;;;;;14.20;96.10;;;;;;6186348;23;19943;-96
2023/05/15 23:18:32;;;;;;;;;;;14.00;96.10;;;;;;6137966;23;19908;-96
2023/05/15 23:21:26;;;;;;;;;;;14.00;96.10;;;;;;6190258;23;19971;-96
2023/05/15 23:24:16;;;;;;;;;;;13.90;96.10;;;;;;6190065;23;19900;-96
2023/05/15 23:27:11;;;;;;;;;;;13.90;96.10;;;;;;6188697;23;19920;-96
2023/05/15 23:30:17;;;;;;;;;;;13.90;96.20;;;;;;6187321;23;19908;-96
2023/05/15 23:33:08;;;;;;;;;;;13.90;96.20;;;;;;6163870;23;19900;-96
2023/05/15 23:36:14;;;;;;;;;;;13.90;96.20;;;;;;6190907;23;19901;-96